createdAt,value
2019-06-15T00:00:24.671Z,1009.57
2019-06-15T00:01:05.226Z,1009.57
2019-06-15T00:01:45.782Z,1009.54
2019-06-15T00:02:26.358Z,1009.55
2019-06-15T00:03:06.917Z,1009.52
2019-06-15T00:03:47.495Z,1009.47
2019-06-15T00:04:28.062Z,1009.5
2019-06-15T00:05:08.690Z,1009.49
2019-06-15T00:05:49.251Z,1009.5
2019-06-15T00:06:29.847Z,1009.51
2019-06-15T00:07:10.465Z,1009.5
2019-06-15T00:07:50.974Z,1009.51
2019-06-15T00:08:31.579Z,1009.47
2019-06-15T00:09:12.136Z,1009.48
2019-06-15T00:09:52.824Z,1009.51
2019-06-15T00:10:33.311Z,1009.51
2019-06-15T00:11:13.895Z,1009.49
2019-06-15T00:11:54.448Z,1009.44
2019-06-15T00:12:35.038Z,1009.45
2019-06-15T00:13:15.609Z,1009.43
2019-06-15T00:13:56.199Z,1009.4
2019-06-15T00:14:36.793Z,1009.38
2019-06-15T00:15:17.365Z,1009.36
2019-06-15T00:15:57.951Z,1009.36
2019-06-15T00:16:38.533Z,1009.29
2019-06-15T00:17:19.095Z,1009.31
2019-06-15T00:18:02.346Z,1009.33
2019-06-15T00:18:42.930Z,1009.29
2019-06-15T00:19:23.477Z,1009.3
2019-06-15T00:20:04.333Z,1009.25
2019-06-15T00:20:44.917Z,1009.29
2019-06-15T00:21:25.491Z,1009.25
2019-06-15T00:22:06.048Z,1009.29
2019-06-15T00:22:46.612Z,1009.28
2019-06-15T00:23:27.179Z,1009.27
2019-06-15T00:24:07.746Z,1009.25
2019-06-15T00:24:48.321Z,1009.27
2019-06-15T00:25:28.913Z,1009.22
2019-06-15T00:26:09.487Z,1009.28
2019-06-15T00:26:50.071Z,1009.21
2019-06-15T00:27:30.633Z,1009.21
2019-06-15T00:28:11.213Z,1009.21
2019-06-15T00:28:51.794Z,1009.21
2019-06-15T00:29:33.208Z,1009.25
2019-06-15T00:30:13.786Z,1009.2
2019-06-15T00:30:54.362Z,1009.19
2019-06-15T00:31:34.911Z,1009.2
2019-06-15T00:32:15.532Z,1009.12
2019-06-15T00:32:56.056Z,1009.12
2019-06-15T00:33:36.716Z,1009.08
2019-06-15T00:34:17.187Z,1009.11
2019-06-15T00:34:57.751Z,1009.02
2019-06-15T00:35:38.322Z,1009.07
2019-06-15T00:36:18.886Z,1009.02
2019-06-15T00:36:59.437Z,1009.04
2019-06-15T00:37:40.014Z,1009.05
2019-06-15T00:38:20.570Z,1009.03
2019-06-15T00:39:01.141Z,1008.97
2019-06-15T00:39:41.699Z,1008.99
2019-06-15T00:40:22.253Z,1008.99
2019-06-15T00:41:02.847Z,1008.99
2019-06-15T00:41:43.407Z,1008.99
2019-06-15T00:42:23.964Z,1008.98
2019-06-15T00:43:04.522Z,1008.96
2019-06-15T00:43:45.121Z,1008.91
2019-06-15T00:44:25.679Z,1008.93
2019-06-15T00:45:06.257Z,1008.97
2019-06-15T00:45:46.837Z,1008.9
2019-06-15T00:46:27.418Z,1008.93
2019-06-15T00:47:07.987Z,1008.88
2019-06-15T00:47:48.561Z,1008.87
2019-06-15T00:48:29.132Z,1008.88
2019-06-15T00:49:09.760Z,1008.85
2019-06-15T00:49:50.304Z,1008.86
2019-06-15T00:50:30.892Z,1008.82
2019-06-15T00:51:11.451Z,1008.83
2019-06-15T00:51:52.022Z,1008.83
2019-06-15T00:52:32.601Z,1008.84
2019-06-15T00:53:13.164Z,1008.84
2019-06-15T00:53:53.723Z,1008.83
2019-06-15T00:54:34.295Z,1008.79
2019-06-15T00:55:14.867Z,1008.8
2019-06-15T00:55:55.432Z,1008.81
2019-06-15T00:56:36.004Z,1008.81
2019-06-15T00:57:16.590Z,1008.77
2019-06-15T00:57:57.178Z,1008.78
2019-06-15T00:58:37.738Z,1008.77
2019-06-15T00:59:18.314Z,1008.8
2019-06-15T00:59:58.882Z,1008.77
2019-06-15T01:00:39.451Z,1008.79
2019-06-15T01:01:20.033Z,1008.79
2019-06-15T01:02:00.597Z,1008.79
2019-06-15T01:02:41.164Z,1008.79
2019-06-15T01:03:21.753Z,1008.72
2019-06-15T01:04:02.327Z,1008.77
2019-06-15T01:04:42.909Z,1008.75
2019-06-15T01:05:23.454Z,1008.75
2019-06-15T01:06:04.040Z,1008.74
2019-06-15T01:06:44.610Z,1008.74
2019-06-15T01:07:25.195Z,1008.69
2019-06-15T01:08:05.778Z,1008.75
2019-06-15T01:08:46.323Z,1008.66
2019-06-15T01:09:26.891Z,1008.67
2019-06-15T01:10:07.475Z,1008.62
2019-06-15T01:10:48.094Z,1008.61
2019-06-15T01:11:28.685Z,1008.52
2019-06-15T01:12:09.257Z,1008.52
2019-06-15T01:12:49.837Z,1008.46
2019-06-15T01:13:30.423Z,1008.4
2019-06-15T01:14:10.970Z,1008.33
2019-06-15T01:14:51.529Z,1008.32
2019-06-15T01:15:32.107Z,1008.25
2019-06-15T01:16:12.685Z,1008.25
2019-06-15T01:16:53.253Z,1008.25
2019-06-15T01:17:33.811Z,1008.21
2019-06-15T01:18:14.406Z,1008.21
2019-06-15T01:18:54.983Z,1008.29
2019-06-15T01:19:35.539Z,1008.29
2019-06-15T01:20:16.363Z,1008.27
2019-06-15T01:20:56.935Z,1008.38
2019-06-15T01:21:37.498Z,1008.35
2019-06-15T01:22:18.067Z,1008.46
2019-06-15T01:22:58.636Z,1008.51
2019-06-15T01:23:39.203Z,1008.5
2019-06-15T01:24:19.785Z,1008.51
2019-06-15T01:25:05.364Z,1008.54
2019-06-15T01:25:40.931Z,1008.54
2019-06-15T01:26:21.501Z,1008.53
2019-06-15T01:27:02.059Z,1008.53
2019-06-15T01:27:42.629Z,1008.5
2019-06-15T01:28:23.183Z,1008.53
2019-06-15T01:29:03.742Z,1008.46
2019-06-15T01:29:44.333Z,1008.48
2019-06-15T01:30:24.895Z,1008.4
2019-06-15T01:31:05.455Z,1008.46
2019-06-15T01:31:46.015Z,1008.39
2019-06-15T01:32:26.591Z,1008.38
2019-06-15T01:33:07.139Z,1008.39
2019-06-15T01:33:47.734Z,1008.29
2019-06-15T01:34:28.292Z,1008.31
2019-06-15T01:35:08.878Z,1008.25
2019-06-15T01:35:49.424Z,1008.19
2019-06-15T01:36:30.003Z,1008.17
2019-06-15T01:37:10.591Z,1008.11
2019-06-15T01:37:51.159Z,1008.07
2019-06-15T01:38:31.726Z,1008.01
2019-06-15T01:39:12.309Z,1008.01
2019-06-15T01:39:52.882Z,1007.98
2019-06-15T01:40:33.447Z,1007.93
2019-06-15T01:41:14.026Z,1007.93
2019-06-15T01:41:54.580Z,1007.84
2019-06-15T01:42:35.146Z,1007.9
2019-06-15T01:43:15.718Z,1007.85
2019-06-15T01:43:56.320Z,1007.86
2019-06-15T01:44:36.896Z,1007.86
2019-06-15T01:45:17.479Z,1007.86
2019-06-15T01:45:58.047Z,1007.8
2019-06-15T01:46:38.613Z,1007.88
2019-06-15T01:47:19.189Z,1007.85
2019-06-15T01:47:59.774Z,1007.86
2019-06-15T01:48:40.350Z,1007.91
2019-06-15T01:49:20.942Z,1007.93
2019-06-15T01:50:01.507Z,1007.92
2019-06-15T01:50:42.076Z,1007.92
2019-06-15T01:51:22.640Z,1007.91
2019-06-15T01:52:03.202Z,1007.92
2019-06-15T01:52:43.757Z,1007.93
2019-06-15T01:53:24.314Z,1007.9
2019-06-15T01:54:04.866Z,1007.86
2019-06-15T01:54:45.444Z,1007.82
2019-06-15T01:55:25.999Z,1007.83
2019-06-15T01:56:06.565Z,1007.82
2019-06-15T01:56:47.137Z,1007.77
2019-06-15T01:57:27.703Z,1007.76
2019-06-15T01:58:08.267Z,1007.69
2019-06-15T01:58:48.840Z,1007.74
2019-06-15T01:59:29.411Z,1007.7
2019-06-15T02:00:09.977Z,1007.72
2019-06-15T02:00:50.567Z,1007.74
2019-06-15T02:01:31.156Z,1007.79
2019-06-15T02:02:11.734Z,1007.71
2019-06-15T02:02:52.340Z,1007.78
2019-06-15T02:03:32.887Z,1007.82
2019-06-15T02:04:13.455Z,1007.86
2019-06-15T02:04:54.035Z,1007.91
2019-06-15T02:05:34.581Z,1007.96
2019-06-15T02:06:15.161Z,1007.93
2019-06-15T02:06:55.725Z,1008.03
2019-06-15T02:07:36.288Z,1008.06
2019-06-15T02:08:16.877Z,1008.12
2019-06-15T02:08:57.431Z,1008.14
2019-06-15T02:09:38.011Z,1008.17
2019-06-15T02:10:18.597Z,1008.17
2019-06-15T02:10:59.183Z,1008.17
2019-06-15T02:11:39.761Z,1008.24
2019-06-15T02:12:20.323Z,1008.26
2019-06-15T02:13:00.893Z,1008.28
2019-06-15T02:13:41.458Z,1008.25
2019-06-15T02:14:22.026Z,1008.26
2019-06-15T02:15:02.680Z,1008.25
2019-06-15T02:15:43.169Z,1008.27
2019-06-15T02:16:23.752Z,1008.24
2019-06-15T02:17:04.344Z,1008.24
2019-06-15T02:17:44.911Z,1008.26
2019-06-15T02:18:25.492Z,1008.2
2019-06-15T02:19:06.061Z,1008.16
2019-06-15T02:19:46.647Z,1008.18
2019-06-15T02:20:27.228Z,1008.21
2019-06-15T02:21:07.821Z,1008.16
2019-06-15T02:21:48.407Z,1008.13
2019-06-15T02:22:28.986Z,1008.16
2019-06-15T02:23:09.536Z,1008.13
2019-06-15T02:23:50.110Z,1008.12
2019-06-15T02:24:30.660Z,1008.12
2019-06-15T02:25:11.225Z,1008.12
2019-06-15T02:25:51.771Z,1008.12
2019-06-15T02:26:32.357Z,1008.1
2019-06-15T02:27:12.957Z,1008.08
2019-06-15T02:27:53.515Z,1008.08
2019-06-15T02:28:34.087Z,1008.09
2019-06-15T02:29:14.635Z,1008.04
2019-06-15T02:29:55.313Z,1008.03
2019-06-15T02:30:35.781Z,1008.02
2019-06-15T02:31:16.344Z,1007.95
2019-06-15T02:31:56.920Z,1007.94
2019-06-15T02:32:37.502Z,1007.87
2019-06-15T02:33:18.065Z,1007.87
2019-06-15T02:33:58.643Z,1007.8
2019-06-15T02:34:39.194Z,1007.9
2019-06-15T02:35:19.762Z,1007.83
2019-06-15T02:36:00.324Z,1007.82
2019-06-15T02:36:40.890Z,1007.89
2019-06-15T02:37:21.485Z,1007.79
2019-06-15T02:38:02.073Z,1007.77
2019-06-15T02:38:42.648Z,1007.7
2019-06-15T02:39:23.205Z,1007.74
2019-06-15T02:40:03.766Z,1007.73
2019-06-15T02:40:44.338Z,1007.68
2019-06-15T02:41:24.934Z,1007.58
2019-06-15T02:42:05.500Z,1007.62
2019-06-15T02:42:46.052Z,1007.6
2019-06-15T02:43:26.629Z,1007.53
2019-06-15T02:44:07.191Z,1007.48
2019-06-15T02:44:47.759Z,1007.47
2019-06-15T02:45:28.325Z,1007.45
2019-06-15T02:46:08.881Z,1007.48
2019-06-15T02:46:49.455Z,1007.47
2019-06-15T02:47:30.030Z,1007.44
2019-06-15T02:48:10.602Z,1007.4
2019-06-15T02:48:51.178Z,1007.32
2019-06-15T02:49:31.753Z,1007.35
2019-06-15T02:50:12.338Z,1007.23
2019-06-15T02:50:52.922Z,1007.21
2019-06-15T02:51:33.498Z,1007.12
2019-06-15T02:52:14.068Z,1007.16
2019-06-15T02:52:54.621Z,1007.08
2019-06-15T02:53:35.187Z,1007.04
2019-06-15T02:54:15.763Z,1006.95
2019-06-15T02:54:56.330Z,1006.99
2019-06-15T02:55:49.683Z,1006.86
2019-06-15T02:56:17.445Z,1006.83
2019-06-15T02:56:58.018Z,1006.74
2019-06-15T02:57:38.591Z,1006.67
2019-06-15T02:58:19.143Z,1006.66
2019-06-15T02:58:59.718Z,1006.67
2019-06-15T02:59:40.695Z,1006.65
2019-06-15T03:00:21.247Z,1006.6
2019-06-15T03:01:01.843Z,1006.64
2019-06-15T03:01:42.392Z,1006.57
2019-06-15T03:02:22.969Z,1006.53
2019-06-15T03:03:03.534Z,1006.54
2019-06-15T03:03:44.100Z,1006.55
2019-06-15T03:04:24.661Z,1006.45
2019-06-15T03:05:05.221Z,1006.4
2019-06-15T03:05:45.793Z,1006.38
2019-06-15T03:06:26.351Z,1006.28
2019-06-15T03:07:06.928Z,1006.14
2019-06-15T03:07:47.487Z,1006.07
2019-06-15T03:08:28.066Z,1006.01
2019-06-15T03:09:08.633Z,1006.06
2019-06-15T03:09:49.204Z,1005.97
2019-06-15T03:10:29.777Z,1005.9
2019-06-15T03:11:10.339Z,1005.87
2019-06-15T03:11:50.911Z,1005.71
2019-06-15T03:12:31.491Z,1005.67
2019-06-15T03:13:12.059Z,1005.63
2019-06-15T03:13:52.641Z,1005.64
2019-06-15T03:14:33.264Z,1005.52
2019-06-15T03:15:13.808Z,1005.53
2019-06-15T03:15:54.387Z,1005.5
2019-06-15T03:16:34.951Z,1005.46
2019-06-15T03:17:15.531Z,1005.53
2019-06-15T03:17:56.101Z,1005.51
2019-06-15T03:18:36.693Z,1005.52
2019-06-15T03:19:17.259Z,1005.5
2019-06-15T03:19:57.838Z,1005.61
2019-06-15T03:20:38.653Z,1005.64
2019-06-15T03:21:19.214Z,1005.71
2019-06-15T03:21:59.779Z,1005.72
2019-06-15T03:22:40.349Z,1005.52
2019-06-15T03:23:20.936Z,1005.66
2019-06-15T03:24:01.523Z,1005.61
2019-06-15T03:24:42.091Z,1005.55
2019-06-15T03:25:22.646Z,1005.53
2019-06-15T03:26:05.699Z,1005.54
2019-06-15T03:26:43.782Z,1005.52
2019-06-15T03:27:24.336Z,1005.47
2019-06-15T03:28:04.921Z,1005.54
2019-06-15T03:28:45.498Z,1005.5
2019-06-15T03:29:26.081Z,1005.48
2019-06-15T03:30:06.620Z,1005.45
2019-06-15T03:30:47.194Z,1005.36
2019-06-15T03:31:27.770Z,1005.33
2019-06-15T03:32:08.355Z,1005.42
2019-06-15T03:32:48.910Z,1005.42
2019-06-15T03:33:29.483Z,1005.44
2019-06-15T03:34:10.079Z,1005.5
2019-06-15T03:34:50.687Z,1005.42
2019-06-15T03:35:31.258Z,1005.38
2019-06-15T03:36:11.823Z,1005.37
2019-06-15T03:36:52.446Z,1005.29
2019-06-15T03:37:33.079Z,1005.29
2019-06-15T03:38:13.633Z,1005.34
2019-06-15T03:38:54.215Z,1005.29
2019-06-15T03:39:34.790Z,1005.38
2019-06-15T03:40:15.359Z,1005.33
2019-06-15T03:40:55.929Z,1005.36
2019-06-15T03:41:36.513Z,1005.37
2019-06-15T03:42:17.173Z,1005.36
2019-06-15T03:42:57.741Z,1005.32
2019-06-15T03:46:11.660Z,1005.56
2019-06-15T03:46:52.226Z,1005.46
2019-06-15T03:47:32.822Z,1005.51
2019-06-15T03:48:13.394Z,1005.51
2019-06-15T03:48:53.961Z,1005.55
2019-06-15T03:49:34.499Z,1005.47
2019-06-15T03:50:15.062Z,1005.54
2019-06-15T03:50:55.631Z,1005.46
2019-06-15T03:51:36.228Z,1005.45
2019-06-15T03:52:16.801Z,1005.44
2019-06-15T03:52:57.363Z,1005.4
2019-06-15T03:53:37.973Z,1005.41
2019-06-15T03:54:18.653Z,1005.38
2019-06-15T03:54:59.164Z,1005.38
2019-06-15T03:55:40.517Z,1005.51
2019-06-15T03:56:21.803Z,1005.52
2019-06-15T03:57:00.851Z,1005.49
2019-06-15T03:57:41.440Z,1005.46
2019-06-15T03:58:21.999Z,1005.52
2019-06-15T03:59:02.564Z,1005.44
2019-06-15T03:59:43.129Z,1005.49
2019-06-15T04:00:23.699Z,1005.4
2019-06-15T04:01:04.281Z,1005.46
2019-06-15T04:01:44.871Z,1005.53
2019-06-15T04:02:25.432Z,1005.5
2019-06-15T04:03:06.028Z,1005.53
2019-06-15T04:03:46.582Z,1005.55
2019-06-15T04:04:27.128Z,1005.53
2019-06-15T04:05:07.696Z,1005.53
2019-06-15T04:05:48.247Z,1005.47
2019-06-15T04:08:47.088Z,1005.46
2019-06-15T04:09:27.659Z,1005.46
2019-06-15T04:10:08.227Z,1005.52
2019-06-15T04:10:48.776Z,1005.48
2019-06-15T04:11:29.342Z,1005.5
2019-06-15T04:12:09.903Z,1005.61
2019-06-15T04:12:50.608Z,1005.54
2019-06-15T04:13:31.028Z,1005.6
2019-06-15T04:14:11.612Z,1005.61
2019-06-15T04:14:52.171Z,1005.53
2019-06-15T04:15:32.743Z,1005.56
2019-06-15T04:16:13.276Z,1005.48
2019-06-15T04:16:53.886Z,1005.57
2019-06-15T04:17:34.465Z,1005.45
2019-06-15T04:18:15.029Z,1005.54
2019-06-15T04:18:55.623Z,1005.34
2019-06-15T04:19:36.223Z,1005.41
2019-06-15T04:20:16.802Z,1005.39
2019-06-15T04:20:57.375Z,1005.39
2019-06-15T04:21:37.952Z,1005.38
2019-06-15T04:22:18.489Z,1005.4
2019-06-15T04:22:59.076Z,1005.35
2019-06-15T04:23:39.639Z,1005.44
2019-06-15T04:24:20.218Z,1005.48
2019-06-15T04:25:00.832Z,1005.42
2019-06-15T04:25:44.032Z,1005.43
2019-06-15T04:26:35.210Z,1005.39
2019-06-15T04:27:02.540Z,1005.46
2019-06-15T04:27:43.093Z,1005.49
2019-06-15T04:28:23.701Z,1005.47
2019-06-15T04:29:04.235Z,1005.4
2019-06-15T04:29:44.797Z,1005.44
2019-06-15T04:30:25.364Z,1005.42
2019-06-15T04:31:05.926Z,1005.4
2019-06-15T04:31:46.484Z,1005.38
2019-06-15T04:32:27.067Z,1005.4
2019-06-15T04:33:07.658Z,1005.42
2019-06-15T04:33:48.219Z,1005.36
2019-06-15T04:34:28.786Z,1005.32
2019-06-15T04:35:09.338Z,1005.31
2019-06-15T04:38:23.267Z,1005.28
2019-06-15T04:39:03.831Z,1005.28
2019-06-15T04:39:44.418Z,1005.35
2019-06-15T04:40:25.003Z,1005.29
2019-06-15T04:41:05.600Z,1005.33
2019-06-15T04:41:46.138Z,1005.36
2019-06-15T04:42:26.681Z,1005.25
2019-06-15T04:43:07.239Z,1005.23
2019-06-15T04:43:47.793Z,1005.2
2019-06-15T04:44:28.354Z,1005.15
2019-06-15T04:45:08.933Z,1005.17
2019-06-15T04:45:49.503Z,1005.17
2019-06-15T04:46:32.044Z,1005.15
2019-06-15T04:47:10.678Z,1005.18
2019-06-15T04:47:51.228Z,1005.2
2019-06-15T04:48:31.791Z,1005.1
2019-06-15T04:49:12.463Z,1005.21
2019-06-15T04:49:53.082Z,1005.23
2019-06-15T04:50:33.657Z,1005.36
2019-06-15T04:51:14.209Z,1005.33
2019-06-15T04:51:54.780Z,1005.46
2019-06-15T04:52:35.349Z,1005.49
2019-06-15T04:53:15.899Z,1005.48
2019-06-15T04:53:56.507Z,1005.52
2019-06-15T04:54:37.066Z,1005.5
2019-06-15T04:55:17.624Z,1005.44
2019-06-15T04:55:58.196Z,1005.49
2019-06-15T04:56:50.177Z,1005.44
2019-06-15T04:57:19.348Z,1005.42
2019-06-15T04:57:59.932Z,1005.36
2019-06-15T04:58:40.532Z,1005.38
2019-06-15T04:59:21.100Z,1005.37
2019-06-15T05:00:01.665Z,1005.39
2019-06-15T05:00:42.246Z,1005.39
2019-06-15T05:01:22.805Z,1005.33
2019-06-15T05:02:03.357Z,1005.38
2019-06-15T05:02:43.918Z,1005.45
2019-06-15T05:03:24.487Z,1005.4
2019-06-15T05:04:05.058Z,1005.4
2019-06-15T05:04:45.641Z,1005.47
2019-06-15T05:05:26.208Z,1005.41
2019-06-15T05:06:06.785Z,1005.4
2019-06-15T05:06:47.339Z,1005.4
2019-06-15T05:07:27.907Z,1005.4
2019-06-15T05:08:08.477Z,1005.3
2019-06-15T05:08:49.067Z,1005.4
2019-06-15T05:09:29.634Z,1005.38
2019-06-15T05:12:28.453Z,1005.37
2019-06-15T05:13:09.011Z,1005.36
2019-06-15T05:13:49.577Z,1005.35
2019-06-15T05:14:30.136Z,1005.32
2019-06-15T05:15:10.692Z,1005.23
2019-06-15T05:15:51.254Z,1005.24
2019-06-15T05:16:31.822Z,1005.24
2019-06-15T05:17:12.386Z,1005.12
2019-06-15T05:17:52.963Z,1005.12
2019-06-15T05:18:33.517Z,1005.11
2019-06-15T05:19:14.083Z,1005.17
2019-06-15T05:19:54.646Z,1005.11
2019-06-15T05:20:35.205Z,1005.08
2019-06-15T05:21:15.828Z,1005.11
2019-06-15T05:21:56.405Z,1005.1
2019-06-15T05:22:36.965Z,1005.08
2019-06-15T05:23:17.552Z,1005.09
2019-06-15T05:23:58.125Z,1005.06
2019-06-15T05:24:38.703Z,1005.05
2019-06-15T05:25:19.281Z,1005.1
2019-06-15T05:25:59.851Z,1005.11
2019-06-15T05:26:40.402Z,1005.13
2019-06-15T05:27:20.981Z,1005.07
2019-06-15T05:28:01.548Z,1005.13
2019-06-15T05:28:42.110Z,1004.98
2019-06-15T05:29:22.664Z,1005.07
2019-06-15T05:30:03.230Z,1004.94
2019-06-15T05:30:43.802Z,1005.07
2019-06-15T05:31:24.353Z,1005.01
2019-06-15T05:32:04.932Z,1005.04
2019-06-15T05:32:45.545Z,1005.01
2019-06-15T05:33:26.062Z,1004.91
2019-06-15T05:34:06.630Z,1004.97
2019-06-15T05:34:47.203Z,1004.98
2019-06-15T05:35:27.774Z,1005.05
2019-06-15T05:36:08.402Z,1005.05
2019-06-15T05:36:49.020Z,1005.11
2019-06-15T05:37:29.578Z,1005.13
2019-06-15T05:38:10.153Z,1005.08
2019-06-15T05:38:50.753Z,1005.08
2019-06-15T05:39:31.338Z,1005.13
2019-06-15T05:41:59.425Z,1005.16
2019-06-15T05:42:39.991Z,1005.13
2019-06-15T05:43:20.553Z,1005.15
2019-06-15T05:44:01.154Z,1005.14
2019-06-15T05:44:41.710Z,1005.16
2019-06-15T05:45:22.291Z,1005.15
2019-06-15T05:46:02.864Z,1005.14
2019-06-15T05:46:43.438Z,1005.15
2019-06-15T05:47:23.995Z,1005.09
2019-06-15T05:48:04.623Z,1005.12
2019-06-15T05:48:45.246Z,1005.32
2019-06-15T05:49:25.858Z,1005.1
2019-06-15T05:50:06.437Z,1005.05
2019-06-15T05:50:47.032Z,1005.09
2019-06-15T05:51:27.686Z,1005.12
2019-06-15T05:52:08.284Z,1005.08
2019-06-15T05:52:48.850Z,1005.06
2019-06-15T05:53:29.455Z,1005.03
2019-06-15T05:54:10.058Z,1005.01
2019-06-15T05:54:50.666Z,1005.07
2019-06-15T05:55:31.258Z,1005.06
2019-06-15T05:56:12.056Z,1004.97
2019-06-15T05:56:52.634Z,1005
2019-06-15T05:57:33.214Z,1005.02
2019-06-15T05:58:13.785Z,1005.04
2019-06-15T05:58:54.373Z,1005.05
2019-06-15T05:59:34.946Z,1005.42
2019-06-15T06:00:15.621Z,1005.54
2019-06-15T06:00:56.235Z,1005.57
2019-06-15T06:01:36.817Z,1005.53
2019-06-15T06:02:20.671Z,1005.48
2019-06-15T06:02:57.985Z,1005.47
2019-06-15T06:03:38.671Z,1005.42
2019-06-15T06:04:19.236Z,1005.32
2019-06-15T06:04:59.839Z,1005.3
2019-06-15T06:05:40.440Z,1005.27
2019-06-15T06:06:21.010Z,1005.3
2019-06-15T06:07:01.623Z,1005.14
2019-06-15T06:07:42.209Z,1005.23
2019-06-15T06:08:22.808Z,1005.1
2019-06-15T06:09:03.392Z,1005.1
2019-06-15T06:09:43.965Z,1005.11
2019-06-15T06:10:24.605Z,1005.1
2019-06-15T06:13:23.542Z,1004.85
2019-06-15T06:14:04.100Z,1004.96
2019-06-15T06:14:44.732Z,1005.16
2019-06-15T06:15:26.868Z,1005.18
2019-06-15T06:16:05.991Z,1005.07
2019-06-15T06:16:46.616Z,1005.19
2019-06-15T06:17:27.228Z,1005.15
2019-06-15T06:18:07.780Z,1004.9
2019-06-15T06:18:48.350Z,1004.87
2019-06-15T06:19:29.029Z,1004.79
2019-06-15T06:20:09.618Z,1004.84
2019-06-15T06:20:50.447Z,1004.78
2019-06-15T06:21:31.085Z,1004.98
2019-06-15T06:22:11.661Z,1005.04
2019-06-15T06:22:52.287Z,1005.04
2019-06-15T06:23:32.888Z,1005.14
2019-06-15T06:24:13.462Z,1005.12
2019-06-15T06:24:54.093Z,1004.99
2019-06-15T06:25:34.661Z,1005.07
2019-06-15T06:26:15.237Z,1004.84
2019-06-15T06:26:55.825Z,1004.95
2019-06-15T06:27:37.030Z,1005.13
2019-06-15T06:28:17.076Z,1004.99
2019-06-15T06:28:57.766Z,1005.1
2019-06-15T06:29:38.250Z,1005.18
2019-06-15T06:30:18.869Z,1005.1
2019-06-15T06:30:59.408Z,1005.11
2019-06-15T06:31:39.988Z,1005.17
2019-06-15T06:32:20.556Z,1005.03
2019-06-15T06:33:01.153Z,1005.04
2019-06-15T06:33:41.751Z,1004.91
2019-06-15T06:34:22.387Z,1005.06
2019-06-15T06:35:03.069Z,1005.05
2019-06-15T06:35:44.061Z,1005.12
2019-06-15T06:36:24.776Z,1004.89
2019-06-15T06:37:05.393Z,1004.86
2019-06-15T06:37:46.394Z,1004.98
2019-06-15T06:38:26.954Z,1005.15
2019-06-15T06:39:07.528Z,1005.18
2019-06-15T06:39:48.088Z,1005.19
2019-06-15T06:40:28.720Z,1005.16
2019-06-15T06:41:09.605Z,1005.15
2019-06-15T06:41:50.889Z,1005.08
2019-06-15T06:42:33.455Z,1005.05
2019-06-15T06:43:14.865Z,1005.09
2019-06-15T06:43:57.350Z,1005.11
2019-06-15T06:44:38.829Z,1005.12
2019-06-15T06:45:19.595Z,1005.15
2019-06-15T06:46:00.303Z,1005.21
2019-06-15T06:46:40.902Z,1005.2
2019-06-15T06:47:21.739Z,1005.12
2019-06-15T06:48:02.511Z,1005.23
2019-06-15T06:48:43.221Z,1005.2
2019-06-15T06:49:23.917Z,1005.21
2019-06-15T06:52:38.493Z,1005.19
2019-06-15T06:53:19.311Z,1005.08
2019-06-15T06:54:00.527Z,1005.07
2019-06-15T06:54:42.582Z,1005.11
2019-06-15T06:55:23.823Z,1005.08
2019-06-15T06:56:04.513Z,1005.08
2019-06-15T06:56:45.498Z,1005.27
2019-06-15T06:57:26.358Z,1005.19
2019-06-15T06:58:08.899Z,1005.07
2019-06-15T06:58:50.122Z,1005.23
2019-06-15T06:59:30.679Z,1005.18
2019-06-15T07:00:11.862Z,1005.08
2019-06-15T07:00:52.663Z,1005.07
2019-06-15T07:01:33.330Z,1005.08
2019-06-15T07:02:14.264Z,1005.05
2019-06-15T07:02:55.181Z,1005.09
2019-06-15T07:03:36.519Z,1005.02
2019-06-15T07:04:17.605Z,1005.09
2019-06-15T07:04:58.361Z,1005
2019-06-15T07:05:39.350Z,1005.12
2019-06-15T07:06:20.040Z,1005.08
2019-06-15T07:07:01.155Z,1005.07
2019-06-15T07:07:42.780Z,1005.06
2019-06-15T07:08:23.821Z,1005.06
2019-06-15T07:09:04.895Z,1004.96
2019-06-15T07:09:46.853Z,1005.08
2019-06-15T07:10:28.183Z,1005
2019-06-15T07:11:09.138Z,1004.97
2019-06-15T07:11:49.857Z,1005.05
2019-06-15T07:15:04.885Z,1004.96
2019-06-15T07:15:45.045Z,1004.94
2019-06-15T07:16:25.650Z,1004.95
2019-06-15T07:17:06.222Z,1004.93
2019-06-15T07:17:46.788Z,1004.94
2019-06-15T07:18:27.357Z,1004.91
2019-06-15T07:19:07.910Z,1004.84
2019-06-15T07:19:48.967Z,1004.84
2019-06-15T07:20:29.931Z,1004.83
2019-06-15T07:21:10.681Z,1004.87
2019-06-15T07:21:51.247Z,1004.76
2019-06-15T07:22:31.841Z,1004.85
2019-06-15T07:23:12.361Z,1004.77
2019-06-15T07:23:52.959Z,1004.73
2019-06-15T07:24:33.527Z,1004.72
2019-06-15T07:25:14.133Z,1004.64
2019-06-15T07:25:54.785Z,1004.62
2019-06-15T07:26:35.340Z,1004.65
2019-06-15T07:27:15.899Z,1004.62
2019-06-15T07:28:07.404Z,1004.61
2019-06-15T07:28:37.064Z,1004.68
2019-06-15T07:29:17.638Z,1004.6
2019-06-15T07:29:58.198Z,1004.6
2019-06-15T07:30:38.826Z,1004.66
2019-06-15T07:31:19.380Z,1004.59
2019-06-15T07:31:59.950Z,1004.6
2019-06-15T07:32:40.536Z,1004.63
2019-06-15T07:33:21.136Z,1004.63
2019-06-15T07:34:01.725Z,1004.59
2019-06-15T07:34:42.288Z,1004.61
2019-06-15T07:35:22.854Z,1004.56
2019-06-15T07:36:03.431Z,1004.53
2019-06-15T07:36:44.001Z,1004.56
2019-06-15T07:37:24.578Z,1004.53
2019-06-15T07:38:05.156Z,1004.4
2019-06-15T07:38:45.747Z,1004.48
2019-06-15T07:39:26.358Z,1004.44
2019-06-15T07:40:06.912Z,1004.46
2019-06-15T07:40:47.504Z,1004.46
2019-06-15T07:41:28.080Z,1004.54
2019-06-15T07:42:08.688Z,1004.43
2019-06-15T07:42:49.264Z,1004.47
2019-06-15T07:43:29.847Z,1004.56
2019-06-15T07:44:10.407Z,1004.52
2019-06-15T07:44:51.044Z,1004.55
2019-06-15T07:45:31.600Z,1004.49
2019-06-15T07:46:12.163Z,1004.52
2019-06-15T07:46:52.814Z,1004.54
2019-06-15T07:47:33.371Z,1004.52
2019-06-15T07:48:13.931Z,1004.56
2019-06-15T07:48:54.490Z,1004.54
2019-06-15T07:49:35.128Z,1004.6
2019-06-15T07:50:15.923Z,1004.56
2019-06-15T07:50:56.835Z,1004.57
2019-06-15T07:51:39.554Z,1004.63
2019-06-15T07:52:20.418Z,1004.61
2019-06-15T07:53:01.259Z,1004.66
2019-06-15T07:53:42.651Z,1004.53
2019-06-15T07:54:23.953Z,1004.58
2019-06-15T07:55:04.779Z,1004.64
2019-06-15T07:55:45.895Z,1004.71
2019-06-15T07:56:26.842Z,1004.67
2019-06-15T07:57:08.096Z,1004.71
2019-06-15T07:57:49.083Z,1004.74
2019-06-15T07:58:29.925Z,1004.78
2019-06-15T07:59:11.001Z,1004.81
2019-06-15T07:59:52.606Z,1004.8
2019-06-15T08:00:33.494Z,1004.85
2019-06-15T08:01:14.175Z,1004.84
2019-06-15T08:01:54.960Z,1004.8
2019-06-15T08:02:35.585Z,1004.78
2019-06-15T08:03:16.196Z,1004.77
2019-06-15T08:03:57.186Z,1004.74
2019-06-15T08:04:38.146Z,1004.74
2019-06-15T08:05:19.240Z,1004.7
2019-06-15T08:06:00.277Z,1004.74
2019-06-15T08:06:41.201Z,1004.73
2019-06-15T08:07:22.527Z,1004.72
2019-06-15T08:08:04.443Z,1004.73
2019-06-15T08:11:18.705Z,1004.78
2019-06-15T08:11:59.305Z,1004.82
2019-06-15T08:12:40.803Z,1004.78
2019-06-15T08:13:21.653Z,1004.77
2019-06-15T08:14:02.223Z,1004.79
2019-06-15T08:14:43.178Z,1004.73
2019-06-15T08:15:24.394Z,1004.71
2019-06-15T08:16:05.238Z,1004.72
2019-06-15T08:16:45.794Z,1004.79
2019-06-15T08:17:26.477Z,1004.74
2019-06-15T08:18:09.682Z,1004.78
2019-06-15T08:18:48.075Z,1004.72
2019-06-15T08:21:46.968Z,1004.6
2019-06-15T08:22:27.560Z,1004.63
2019-06-15T08:23:08.212Z,1004.64
2019-06-15T08:23:48.950Z,1004.64
2019-06-15T08:24:29.609Z,1004.7
2019-06-15T08:25:10.198Z,1004.71
2019-06-15T08:25:50.795Z,1004.72
2019-06-15T08:26:31.351Z,1004.7
2019-06-15T08:27:11.941Z,1004.77
2019-06-15T08:27:52.560Z,1004.68
2019-06-15T08:28:40.119Z,1004.71
2019-06-15T08:29:13.724Z,1004.64
2019-06-15T08:29:54.332Z,1004.68
2019-06-15T08:30:34.918Z,1004.64
2019-06-15T08:31:15.492Z,1004.62
2019-06-15T08:31:56.067Z,1004.61
2019-06-15T08:32:36.616Z,1004.68
2019-06-15T08:33:17.305Z,1004.7
2019-06-15T08:33:57.883Z,1004.66
2019-06-15T08:34:38.474Z,1004.65
2019-06-15T08:35:19.035Z,1004.7
2019-06-15T08:36:02.195Z,1004.58
2019-06-15T08:36:40.410Z,1004.59
2019-06-15T08:37:20.994Z,1004.6